To NAV CANADA Home Page Login to a new session Search on AWWS site Disclaimer Vers la page française équivalente Tips FAQ What's new on the site To the Forecasts and Observations / NOTAM section To "File a Flight Plan" website Publications and other links Update of the User's profile FIC Telephone Numbers My Weather Data Folder Route Weather Data Regional Weather Data Local Weather Data To the Forecasts and Observations / NOTAM section
Request Generated 10/19/2018 at 16:08:07 UTC . Weather information available at that time is displayed.

METAR/TAF

GJOA HAVEN/NU    (show WxCam)

METAR CYHK 191600Z 35014KT 15SM SCT040 M15/M16 A2995 RMK SC3 SLP150=
METAR CYHK 191500Z 34014KT 15SM SCT039 M14/M15 A2993 RMK SC4 SLP145=
METAR CYHK 191400Z 35015KT 15SM -SN BKN060 M14/M15 A2991 RMK SC5 SLP137=

TAF CYHK 191138Z 1912/1924 35015KT P6SM SCT010 BKN040 TEMPO 1912/1924
4SM -SN BR SCT003 BKN010 OVC040 PROB30 1912/1916 3/4SM BR BKN003
RMK FCST BASED ON AUTO OBS. NXT FCST BY 191800Z=
Your time UTC time
Weather data provided by Environment Canada and NAV CANADA